Main page
METAR-TAF:

METAR-TAF

Airports :

Hutchinson Municipal Airport

Hutchinson, Minnesota, United States

latitude: 44-52N, longitude: 094-23W, elevation: 1059 ft

Current weather observation

The report was made 16 minutes ago, at 10:55 UTC
Wind 18 mph from the East/Southeast with gusts up to 25 mph
Temperature 59°F
Humidity 29%
Pressure 29.77 in. Hg
Visibility: 10 miles
Scattered clouds at a height of 6000 ft
Broken clouds at a height of 7000 ft
Overcast at a height of 10000 ft
light rain

METAR: KHCD 161055Z AUTO 12016G22KT 10SM -RA SCT060 BKN070 OVC100 15/M03 A2977 RMK AO2 LTG DSNT SE THRU SW T01471028

Time: 06:11 (11:11 UTC)


TAF: missing

Weather observations and forecasts of more than 4000 airports (METAR and TAF reports).

The available stations are represented by yellow and red dots on the map.

Hover mouse over dot to see the name of the station.

Then click to see weather observations and forecasts.

To change the map : click on the green buttons with a black cross to zoom in, on the green button with a dash to zoom out, or on the green arrows for adjacent maps.


METAR-TAF: